Van Tassell, WY (82242)

12:45 PM MST on January 29, 2015 (GMT -0700)
LEMS | Change Station
CLOSE
Current Station
Personal Weather Station
Location: Lusk, WY
Elevation: 5070 ft
Nearby Weather Stations

Elev 5070 ft 42.76 °N, 104.45 °W | Updated 2 minutes ago

Clear
Clear
41.6 °F
Feels Like 42 °F
N
2.0
Wind Variable Wind from NW
Gusts 3.0 mph

Today
High -- | Low -- °F
--% Chance of Precip.
Yesterday
High -- | Low -- °F
Precip. -- in
7:13 AM 5:05 PM
Waxing Gibbous, 76% visible
Pressure 30.48 in
Visibility 10.0 miles
Clouds Clear
Windchill 42 °F
Dew Point 16 °F
Humidity 35%
Rainfall 0.00 in
Snow Depth Not available.
UV 3 out of 12
Pollen .10 out of 12
Air Quality Not available.
Flu Activity Not available.
METAR KTOR 291853Z AUTO 00000KT 10SM CLR 07/M08 A3046 RMK AO2 SLP322 T00721078

More Conditions Fewer Conditions

Pressure 30.48 in
Visibility 10.0 miles
Clouds Clear
Windchill 42 °F
Dew Point 16 °F
Humidity 35%
Rainfall 0.00 in
Snow Depth Not available.
UV 3 out of 12
Pollen .10 out of 12
Air Quality Not available.
Flu Activity Not available.
METAR KTOR 291853Z AUTO 00000KT 10SM CLR 07/M08 A3046 RMK AO2 SLP322 T00721078

More Conditions Fewer Conditions

10-Day Weather Forecast

Almanac

Astronomy

Jan. 29, 2015 Rise Set
Actual Time
Civil Twilight
Nautical Twilight
Astronomical Twilight
Moon
Length of Visible Light
Length of Day
Tomorrow will be .
, % of the Moon is Illuminated

Today's Extremes

State Highs State Lows

Community

WunderPhotos

Upload Photos

1,791,568 photos uploaded!

WunderBlogs® & News

Nearby

Air Quality

  Air Quality AQ Index Pollutant
Not available.

Snow Depth

Station Depth Elevation

Earthquake Activity

City Distance Mag. Time & Date
Minimum magnitude displayed is 2.5.

Coastal Water Temperatures

Place Temperature

Nearby Weather Stations